createdAt,value
2022-12-08T00:02:06.202Z,11.65
2022-12-08T00:04:54.626Z,12.40
2022-12-08T00:07:40.614Z,12.73
2022-12-08T00:10:39.861Z,12.65
2022-12-08T00:13:00.662Z,11.88
2022-12-08T00:15:28.921Z,12.00
2022-12-08T00:17:58.543Z,12.88
2022-12-08T00:20:26.822Z,12.38
2022-12-08T00:22:54.984Z,12.82
2022-12-08T00:25:23.124Z,13.02
2022-12-08T00:27:51.289Z,12.65
2022-12-08T00:30:19.519Z,13.25
2022-12-08T00:32:47.849Z,12.77
2022-12-08T00:35:17.467Z,12.82
2022-12-08T00:37:45.614Z,12.32
2022-12-08T00:40:13.918Z,12.75
2022-12-08T00:42:42.020Z,13.10
2022-12-08T00:45:10.943Z,12.90
2022-12-08T00:47:39.284Z,12.40
2022-12-08T00:50:08.834Z,13.98
2022-12-08T00:52:38.840Z,13.98
2022-12-08T00:55:07.392Z,12.95
2022-12-08T00:57:35.574Z,12.50
2022-12-08T01:00:04.522Z,12.45
2022-12-08T01:02:34.314Z,12.30
2022-12-08T01:05:02.489Z,12.43
2022-12-08T01:07:30.697Z,13.60
2022-12-08T01:10:00.167Z,14.27
2022-12-08T01:12:30.373Z,12.93
2022-12-08T01:15:02.213Z,13.52
2022-12-08T01:17:30.768Z,12.57
2022-12-08T01:19:59.479Z,13.50
2022-12-08T01:22:30.201Z,12.82
2022-12-08T01:25:01.936Z,12.45
2022-12-08T01:27:30.110Z,12.57
2022-12-08T01:29:58.190Z,14.18
2022-12-08T01:32:28.552Z,12.50
2022-12-08T01:34:56.682Z,13.07
2022-12-08T01:37:24.787Z,12.88
2022-12-08T01:39:53.114Z,12.85
2022-12-08T01:42:24.429Z,12.40
2022-12-08T01:44:59.160Z,13.52
2022-12-08T01:47:31.743Z,12.98
2022-12-08T01:50:00.530Z,12.45
2022-12-08T01:52:34.523Z,13.43
2022-12-08T01:55:06.151Z,13.23
2022-12-08T01:57:40.920Z,12.75
2022-12-08T02:00:12.325Z,13.25
2022-12-08T02:02:51.119Z,12.57
2022-12-08T02:05:21.775Z,13.55
2022-12-08T02:07:50.453Z,13.13
2022-12-08T02:10:22.149Z,12.80
2022-12-08T02:12:54.107Z,12.80
2022-12-08T02:15:31.227Z,13.23
2022-12-08T02:18:07.955Z,13.23
2022-12-08T02:20:47.002Z,13.30
2022-12-08T02:23:25.147Z,12.90
2022-12-08T02:26:18.767Z,13.13
2022-12-08T02:29:12.668Z,13.25
2022-12-08T02:31:55.059Z,12.18
2022-12-08T02:34:30.680Z,13.98
2022-12-08T02:37:07.988Z,13.05
2022-12-08T02:39:43.119Z,12.88
2022-12-08T02:42:19.580Z,12.55
2022-12-08T02:44:53.289Z,12.55
2022-12-08T02:47:24.792Z,12.98
2022-12-08T02:49:55.787Z,12.60
2022-12-08T02:52:46.718Z,12.57
2022-12-08T02:55:27.571Z,12.68
2022-12-08T02:58:15.933Z,11.65
2022-12-08T03:01:00.012Z,12.35
2022-12-08T03:03:36.646Z,13.00
2022-12-08T03:06:14.167Z,12.32
2022-12-08T03:08:49.833Z,13.45
2022-12-08T03:11:22.800Z,12.27
2022-12-08T03:13:54.135Z,12.30
2022-12-08T03:16:25.909Z,11.68
2022-12-08T03:18:57.838Z,12.07
2022-12-08T03:21:28.303Z,11.88
2022-12-08T03:23:58.802Z,11.07
2022-12-08T03:26:31.923Z,11.38
2022-12-08T03:29:00.575Z,11.80
2022-12-08T03:31:34.204Z,12.00
2022-12-08T03:34:05.653Z,11.25
2022-12-08T03:36:35.058Z,11.48
2022-12-08T03:39:03.435Z,10.80
2022-12-08T03:41:31.591Z,11.25
2022-12-08T03:44:00.454Z,10.52
2022-12-08T03:48:58.673Z,10.25
2022-12-08T03:51:27.258Z,11.32
2022-12-08T03:53:56.821Z,9.98
2022-12-08T03:56:26.877Z,10.93
2022-12-08T03:58:55.866Z,11.32
2022-12-08T04:01:24.372Z,10.65
2022-12-08T04:03:52.899Z,10.70
2022-12-08T04:06:22.726Z,9.68
2022-12-08T04:08:51.737Z,9.82
2022-12-08T04:11:21.583Z,10.73
2022-12-08T04:13:49.846Z,10.23
2022-12-08T04:16:19.782Z,11.18
2022-12-08T04:18:48.810Z,10.73
2022-12-08T04:21:17.083Z,10.77
2022-12-08T04:23:45.534Z,10.73
2022-12-08T04:26:14.366Z,12.43
2022-12-08T04:28:44.338Z,10.25
2022-12-08T04:31:12.601Z,11.50
2022-12-08T04:33:40.801Z,11.60
2022-12-08T04:36:10.234Z,11.57
2022-12-08T04:38:38.412Z,11.38
2022-12-08T04:41:11.500Z,11.57
2022-12-08T04:43:39.684Z,11.20
2022-12-08T04:46:10.293Z,11.93
2022-12-08T04:48:39.939Z,10.85
2022-12-08T04:51:08.699Z,11.38
2022-12-08T04:53:38.383Z,12.07
2022-12-08T04:56:13.172Z,12.30
2022-12-08T04:58:41.648Z,10.88
2022-12-08T05:01:11.384Z,11.45
2022-12-08T05:03:39.635Z,11.70
2022-12-08T05:06:08.202Z,11.43
2022-12-08T05:08:36.402Z,11.60
2022-12-08T05:11:08.647Z,11.65
2022-12-08T05:13:37.043Z,11.95
2022-12-08T05:16:06.290Z,11.43
2022-12-08T05:18:36.371Z,11.35
2022-12-08T05:21:05.650Z,11.45
2022-12-08T05:23:34.377Z,10.88
2022-12-08T05:26:02.765Z,12.00
2022-12-08T05:28:46.357Z,11.25
2022-12-08T05:31:16.483Z,11.73
2022-12-08T05:33:46.582Z,10.73
2022-12-08T05:36:16.063Z,11.52
2022-12-08T05:38:45.529Z,11.38
2022-12-08T05:41:16.750Z,11.55
2022-12-08T05:43:45.435Z,11.45
2022-12-08T05:46:16.453Z,11.77
2022-12-08T05:48:46.102Z,11.68
2022-12-08T05:51:19.790Z,12.07
2022-12-08T05:53:50.079Z,11.68
2022-12-08T05:56:21.480Z,11.52
2022-12-08T05:58:50.057Z,11.35
2022-12-08T06:01:23.337Z,11.52
2022-12-08T06:04:03.324Z,12.68
2022-12-08T06:06:32.627Z,12.10
2022-12-08T06:09:03.750Z,11.93
2022-12-08T06:11:35.221Z,12.27
2022-12-08T06:14:29.857Z,11.80
2022-12-08T06:17:08.180Z,11.27
2022-12-08T06:19:41.238Z,11.77
2022-12-08T06:22:11.439Z,12.98
2022-12-08T06:24:40.685Z,11.80
2022-12-08T06:27:08.863Z,12.18
2022-12-08T06:29:36.935Z,12.18
2022-12-08T06:32:05.202Z,13.15
2022-12-08T06:34:33.395Z,11.95
2022-12-08T06:37:05.398Z,11.90
2022-12-08T06:39:33.571Z,12.23
2022-12-08T06:42:19.868Z,12.85
2022-12-08T06:44:48.599Z,11.82
2022-12-08T06:47:16.807Z,12.02
2022-12-08T06:49:45.027Z,12.38
2022-12-08T06:52:15.363Z,11.38
2022-12-08T06:54:43.653Z,12.68
2022-12-08T06:57:11.916Z,12.38
2022-12-08T06:59:42.670Z,12.02
2022-12-08T07:02:11.415Z,13.13
2022-12-08T07:04:39.633Z,12.02
2022-12-08T07:07:10.242Z,13.50
2022-12-08T07:09:39.824Z,13.27
2022-12-08T07:12:08.419Z,12.25
2022-12-08T07:14:37.868Z,12.00
2022-12-08T07:17:06.357Z,12.38
2022-12-08T07:19:34.803Z,13.35
2022-12-08T07:22:03.103Z,13.10
2022-12-08T07:24:31.309Z,11.90
2022-12-08T07:27:02.935Z,12.25
2022-12-08T07:29:31.283Z,12.15
2022-12-08T07:31:59.589Z,12.45
2022-12-08T07:34:27.786Z,12.05
2022-12-08T07:36:56.068Z,13.15
2022-12-08T07:39:24.219Z,12.98
2022-12-08T07:41:52.443Z,12.27
2022-12-08T07:44:23.937Z,12.25
2022-12-08T07:46:52.238Z,13.10
2022-12-08T07:49:22.881Z,11.75
2022-12-08T07:51:51.024Z,12.70
2022-12-08T07:54:19.334Z,13.18
2022-12-08T07:56:47.449Z,11.82
2022-12-08T07:59:15.658Z,12.10
2022-12-08T08:01:45.678Z,12.75
2022-12-08T08:04:14.177Z,11.73
2022-12-08T08:06:42.430Z,11.85
2022-12-08T08:09:11.037Z,12.00
2022-12-08T08:11:39.398Z,12.30
2022-12-08T08:14:07.459Z,11.82
2022-12-08T08:16:38.613Z,11.85
2022-12-08T08:19:08.690Z,12.68
2022-12-08T08:21:45.512Z,12.35
2022-12-08T08:24:14.158Z,11.13
2022-12-08T08:26:44.671Z,11.40
2022-12-08T08:29:12.771Z,11.52
2022-12-08T08:31:40.973Z,12.73
2022-12-08T08:34:10.584Z,11.80
2022-12-08T08:36:41.325Z,12.13
2022-12-08T08:39:09.560Z,11.82
2022-12-08T08:41:37.729Z,11.75
2022-12-08T08:44:06.057Z,11.65
2022-12-08T08:46:34.856Z,12.15
2022-12-08T08:49:05.463Z,12.45
2022-12-08T08:51:35.366Z,11.95
2022-12-08T08:54:03.520Z,11.52
2022-12-08T08:56:33.778Z,12.05
2022-12-08T08:59:03.062Z,11.23
2022-12-08T09:01:31.660Z,11.90
2022-12-08T09:04:01.449Z,12.73
2022-12-08T09:06:32.446Z,11.63
2022-12-08T09:09:02.233Z,12.20
2022-12-08T09:11:31.403Z,11.30
2022-12-08T09:13:59.565Z,12.30
2022-12-08T09:16:30.111Z,12.30
2022-12-08T09:18:58.374Z,13.27
2022-12-08T09:21:27.607Z,12.40
2022-12-08T09:23:57.801Z,12.00
2022-12-08T09:26:29.156Z,12.10
2022-12-08T09:28:58.135Z,11.75
2022-12-08T09:31:26.538Z,11.70
2022-12-08T09:33:54.889Z,11.95
2022-12-08T09:36:23.252Z,12.68
2022-12-08T09:38:53.542Z,11.20
2022-12-08T09:41:35.977Z,11.50
2022-12-08T09:44:30.732Z,11.40
2022-12-08T09:47:01.787Z,10.75
2022-12-08T09:49:43.385Z,10.70
2022-12-08T09:52:21.870Z,11.65
2022-12-08T09:54:50.156Z,11.70
2022-12-08T09:57:21.879Z,10.57
2022-12-08T09:59:56.433Z,10.98
2022-12-08T10:02:26.559Z,10.70
2022-12-08T10:04:56.827Z,10.55
2022-12-08T10:07:38.227Z,9.80
2022-12-08T10:10:17.713Z,10.43
2022-12-08T10:12:49.656Z,9.80
2022-12-08T10:15:38.889Z,10.00
2022-12-08T10:18:17.802Z,10.23
2022-12-08T10:20:48.445Z,9.15
2022-12-08T10:23:28.816Z,9.30
2022-12-08T10:26:02.625Z,9.85
2022-12-08T10:28:30.818Z,9.90
2022-12-08T10:31:01.922Z,9.63
2022-12-08T10:33:34.443Z,8.40
2022-12-08T10:36:03.183Z,8.48
2022-12-08T10:38:33.156Z,8.52
2022-12-08T10:41:07.818Z,8.80
2022-12-08T10:43:39.407Z,9.02
2022-12-08T10:46:15.494Z,8.82
2022-12-08T10:48:55.612Z,8.88
2022-12-08T10:51:29.833Z,9.35
2022-12-08T10:53:58.543Z,8.85
2022-12-08T10:56:29.119Z,8.18
2022-12-08T10:59:13.651Z,9.32
2022-12-08T11:01:48.678Z,8.27
2022-12-08T11:04:19.602Z,8.85
2022-12-08T11:06:51.758Z,8.82
2022-12-08T11:09:39.588Z,9.23
2022-12-08T11:12:10.230Z,8.32
2022-12-08T11:14:49.642Z,8.48
2022-12-08T11:17:26.220Z,7.53
2022-12-08T11:20:00.704Z,8.30
2022-12-08T11:22:33.061Z,8.85
2022-12-08T11:25:10.346Z,8.73
2022-12-08T11:27:40.995Z,8.50
2022-12-08T11:30:17.072Z,8.85
2022-12-08T11:32:51.965Z,8.30
2022-12-08T11:35:25.372Z,7.57
2022-12-08T11:38:07.860Z,7.95
2022-12-08T11:40:45.453Z,7.97
2022-12-08T11:43:20.621Z,7.30
2022-12-08T11:45:53.238Z,7.00
2022-12-08T11:48:31.186Z,6.63
2022-12-08T11:51:05.115Z,7.13
2022-12-08T11:53:40.449Z,7.32
2022-12-08T11:56:20.128Z,8.40
2022-12-08T11:58:51.725Z,7.15
2022-12-08T12:01:22.576Z,7.50
2022-12-08T12:03:59.752Z,6.53
2022-12-08T12:06:57.139Z,6.50
2022-12-08T12:09:36.014Z,6.80
2022-12-08T12:12:16.957Z,6.82
2022-12-08T12:15:22.706Z,5.97
2022-12-08T12:17:54.094Z,6.88
2022-12-08T12:20:47.062Z,6.57
2022-12-08T12:27:31.973Z,6.38
2022-12-08T12:30:03.705Z,6.70
2022-12-08T12:32:44.466Z,6.05
2022-12-08T12:35:27.685Z,6.20
2022-12-08T12:38:04.347Z,6.50
2022-12-08T12:40:40.153Z,6.40
2022-12-08T12:43:28.723Z,6.10
2022-12-08T12:46:29.468Z,6.13
2022-12-08T12:49:36.194Z,6.00
2022-12-08T12:52:05.830Z,5.82
2022-12-08T12:54:35.402Z,4.97
2022-12-08T12:57:22.068Z,5.40
2022-12-08T13:00:09.326Z,5.45
2022-12-08T13:05:15.959Z,5.70
2022-12-08T13:07:50.910Z,5.20
2022-12-08T13:10:24.362Z,5.65
2022-12-08T13:13:18.915Z,6.82
2022-12-08T13:15:52.412Z,6.10
2022-12-08T13:18:23.037Z,6.22
2022-12-08T13:20:54.147Z,6.88
2022-12-08T13:23:42.534Z,7.07
2022-12-08T13:26:18.595Z,5.97
2022-12-08T13:29:14.030Z,6.93
2022-12-08T13:31:50.056Z,6.53
2022-12-08T13:34:22.961Z,5.97
2022-12-08T13:37:02.457Z,6.00
2022-12-08T13:39:37.911Z,6.22
2022-12-08T13:42:17.659Z,6.55
2022-12-08T13:45:19.739Z,7.10
2022-12-08T13:48:14.066Z,6.60
2022-12-08T13:50:55.732Z,7.20
2022-12-08T13:54:35.384Z,6.80
2022-12-08T13:59:28.143Z,6.40
2022-12-08T14:01:59.403Z,6.90
2022-12-08T14:04:47.980Z,6.15
2022-12-08T14:07:17.494Z,6.80
2022-12-08T14:09:47.476Z,5.95
2022-12-08T14:12:20.671Z,6.68
2022-12-08T14:15:08.334Z,6.38
2022-12-08T14:17:36.670Z,6.05
2022-12-08T14:20:15.441Z,6.10
2022-12-08T14:22:46.394Z,6.47
2022-12-08T14:25:16.871Z,5.32
2022-12-08T14:27:46.337Z,5.82
2022-12-08T14:30:21.293Z,6.03
2022-12-08T14:32:51.779Z,5.57
2022-12-08T14:35:24.601Z,5.40
2022-12-08T14:37:56.604Z,5.13
2022-12-08T14:40:29.839Z,5.40
2022-12-08T14:43:14.817Z,5.32
2022-12-08T14:45:53.447Z,5.25
2022-12-08T14:48:26.829Z,5.47
2022-12-08T14:51:09.354Z,5.45
2022-12-08T14:53:42.443Z,4.28
2022-12-08T14:56:19.940Z,4.85
2022-12-08T14:58:49.821Z,5.50
2022-12-08T15:01:24.733Z,5.35
2022-12-08T15:03:54.879Z,4.75
2022-12-08T15:06:23.656Z,5.35
2022-12-08T15:08:58.697Z,4.80
2022-12-08T15:11:37.129Z,4.82
2022-12-08T15:14:05.607Z,4.97
2022-12-08T15:16:42.757Z,5.53
2022-12-08T15:19:19.682Z,5.10
2022-12-08T15:21:48.384Z,5.85
2022-12-08T15:24:19.296Z,5.43
2022-12-08T15:26:49.566Z,5.25
2022-12-08T15:29:22.807Z,5.28
2022-12-08T15:31:53.779Z,5.88
2022-12-08T15:34:22.691Z,5.20
2022-12-08T15:36:52.359Z,5.13
2022-12-08T15:39:33.170Z,5.38
2022-12-08T15:42:02.542Z,5.22
2022-12-08T15:44:32.750Z,5.82
2022-12-08T15:47:02.759Z,5.32
2022-12-08T15:49:31.346Z,4.85
2022-12-08T15:52:10.749Z,4.90
2022-12-08T15:54:39.996Z,5.57
2022-12-08T15:57:43.794Z,5.65
2022-12-08T16:00:51.259Z,5.47
2022-12-08T16:04:02.712Z,5.05
2022-12-08T16:09:14.080Z,5.30
2022-12-08T16:12:09.292Z,5.25
2022-12-08T16:17:29.059Z,5.35
2022-12-08T16:19:59.427Z,5.05
2022-12-08T16:22:52.733Z,5.45
2022-12-08T16:25:19.376Z,5.40
2022-12-08T16:28:03.000Z,5.22
2022-12-08T16:30:37.171Z,5.50
2022-12-08T16:33:05.691Z,5.57
2022-12-08T16:35:35.496Z,5.38
2022-12-08T16:38:03.841Z,5.32
2022-12-08T16:40:32.237Z,5.00
2022-12-08T16:42:59.487Z,8.90
2022-12-08T16:45:29.551Z,5.03
2022-12-08T16:47:59.876Z,5.03
2022-12-08T16:50:30.454Z,6.30
2022-12-08T16:53:01.969Z,5.22
2022-12-08T16:55:30.300Z,26.40
2022-12-08T16:57:59.469Z,6.13
2022-12-08T17:00:29.612Z,8.23
2022-12-08T17:03:00.128Z,6.05
2022-12-08T17:05:28.639Z,9.07
2022-12-08T17:08:00.117Z,6.20
2022-12-08T17:10:30.589Z,5.35
2022-12-08T17:12:59.066Z,5.28
2022-12-08T17:15:27.385Z,5.35
2022-12-08T17:17:55.739Z,5.28
2022-12-08T17:20:28.402Z,6.40
2022-12-08T17:22:58.237Z,5.80
2022-12-08T17:25:28.342Z,4.30
2022-12-08T17:27:57.141Z,5.63
2022-12-08T17:30:26.032Z,4.97
2022-12-08T17:32:55.496Z,5.03
2022-12-08T17:35:23.734Z,5.22
2022-12-08T17:37:52.091Z,5.10
2022-12-08T17:40:20.281Z,5.15
2022-12-08T17:42:52.729Z,5.40
2022-12-08T17:45:21.650Z,5.25
2022-12-08T17:47:51.546Z,5.00
2022-12-08T17:50:25.465Z,5.72
2022-12-08T17:52:54.012Z,6.20
2022-12-08T17:55:23.796Z,6.32
2022-12-08T17:57:53.350Z,6.00
2022-12-08T18:00:21.751Z,6.10
2022-12-08T18:02:50.068Z,6.47
2022-12-08T18:05:18.255Z,6.50
2022-12-08T18:07:46.384Z,6.00
2022-12-08T18:10:14.631Z,6.13
2022-12-08T18:12:43.444Z,6.13
2022-12-08T18:15:17.129Z,7.13
2022-12-08T18:17:46.656Z,6.78
2022-12-08T18:20:16.304Z,5.32
2022-12-08T18:22:45.224Z,5.22
2022-12-08T18:25:14.435Z,6.57
2022-12-08T18:27:44.181Z,6.22
2022-12-08T18:30:17.184Z,7.72
2022-12-08T18:32:45.430Z,6.70
2022-12-08T18:35:13.810Z,6.05
2022-12-08T18:37:42.988Z,6.55
2022-12-08T18:40:12.684Z,5.85
2022-12-08T18:42:41.873Z,6.53
2022-12-08T18:45:11.110Z,6.80
2022-12-08T18:47:43.662Z,6.40
2022-12-08T18:50:13.806Z,6.28
2022-12-08T18:52:43.738Z,6.45
2022-12-08T18:55:13.808Z,6.43
2022-12-08T18:57:43.387Z,6.20
2022-12-08T19:00:20.521Z,6.30
2022-12-08T19:02:50.198Z,6.60
2022-12-08T19:05:18.633Z,6.53
2022-12-08T19:07:53.839Z,7.07
2022-12-08T19:10:25.236Z,7.10
2022-12-08T19:12:55.465Z,6.82
2022-12-08T19:15:26.089Z,6.95
2022-12-08T19:17:56.904Z,6.80
2022-12-08T19:20:25.081Z,7.43
2022-12-08T19:22:53.263Z,7.55
2022-12-08T19:25:22.986Z,7.00
2022-12-08T19:28:22.258Z,7.80
2022-12-08T19:30:50.535Z,7.47
2022-12-08T19:33:20.276Z,7.72
2022-12-08T19:35:52.655Z,7.45
2022-12-08T19:38:21.246Z,11.70
2022-12-08T19:41:06.777Z,10.80
2022-12-08T19:44:05.981Z,7.35
2022-12-08T19:49:10.046Z,6.65
2022-12-08T19:51:38.680Z,6.63
2022-12-08T19:54:08.750Z,6.97
2022-12-08T19:56:36.852Z,7.28
2022-12-08T19:59:07.786Z,8.68
2022-12-08T20:01:37.608Z,7.45
2022-12-08T20:04:09.843Z,6.72
2022-12-08T20:06:38.201Z,7.20
2022-12-08T20:09:06.723Z,7.65
2022-12-08T20:11:35.894Z,7.10
2022-12-08T20:14:04.050Z,7.05
2022-12-08T20:16:32.337Z,6.60
2022-12-08T20:19:00.820Z,6.63
2022-12-08T20:21:30.550Z,6.10
2022-12-08T20:24:01.035Z,7.10
2022-12-08T20:26:29.257Z,7.88
2022-12-08T20:28:57.429Z,7.80
2022-12-08T20:31:26.893Z,7.28
2022-12-08T20:33:55.668Z,7.63
2022-12-08T20:36:24.611Z,6.88
2022-12-08T20:38:55.445Z,8.02
2022-12-08T20:41:24.569Z,7.18
2022-12-08T20:43:53.659Z,7.85
2022-12-08T20:46:22.397Z,8.10
2022-12-08T20:48:50.624Z,7.85
2022-12-08T20:51:20.547Z,7.63
2022-12-08T20:53:48.785Z,8.27
2022-12-08T20:56:20.727Z,8.20
2022-12-08T20:58:52.264Z,8.60
2022-12-08T21:01:22.484Z,7.45
2022-12-08T21:03:52.261Z,7.78
2022-12-08T21:06:23.326Z,7.90
2022-12-08T21:08:52.337Z,7.45
2022-12-08T21:11:22.260Z,8.45
2022-12-08T21:13:50.685Z,8.38
2022-12-08T21:16:20.090Z,8.55
2022-12-08T21:18:48.669Z,9.38
2022-12-08T21:21:17.970Z,8.60
2022-12-08T21:23:46.349Z,8.88
2022-12-08T21:26:17.653Z,8.82
2022-12-08T21:28:48.829Z,9.00
2022-12-08T21:31:19.119Z,9.48
2022-12-08T21:33:47.652Z,9.05
2022-12-08T21:36:17.824Z,9.43
2022-12-08T21:38:46.912Z,9.52
2022-12-08T21:41:37.369Z,9.20
2022-12-08T21:44:07.922Z,9.20
2022-12-08T21:46:36.351Z,9.65
2022-12-08T21:49:05.411Z,9.27
2022-12-08T21:51:37.836Z,9.00
2022-12-08T21:54:06.426Z,9.25
2022-12-08T21:56:34.673Z,8.88
2022-12-08T21:59:02.865Z,9.20
2022-12-08T22:01:32.656Z,9.25
2022-12-08T22:04:01.241Z,9.18
2022-12-08T22:06:29.760Z,9.32
2022-12-08T22:08:58.714Z,9.50
2022-12-08T22:11:27.014Z,9.52
2022-12-08T22:13:55.447Z,9.85
2022-12-08T22:16:25.982Z,9.38
2022-12-08T22:18:55.737Z,8.65
2022-12-08T22:21:23.915Z,8.63
2022-12-08T22:23:52.077Z,8.63
2022-12-08T22:26:20.380Z,8.93
2022-12-08T22:28:48.789Z,9.60
2022-12-08T22:31:19.486Z,9.25
2022-12-08T22:33:48.478Z,9.50
2022-12-08T22:36:20.413Z,9.35
2022-12-08T22:38:49.221Z,9.27
2022-12-08T22:41:17.867Z,9.05
2022-12-08T22:43:46.410Z,9.25
2022-12-08T22:46:16.980Z,9.60
2022-12-08T22:48:45.721Z,9.48
2022-12-08T22:51:14.310Z,8.55
2022-12-08T22:53:44.013Z,9.20
2022-12-08T22:56:14.108Z,9.82
2022-12-08T22:58:43.037Z,9.00
2022-12-08T23:01:23.064Z,8.90
2022-12-08T23:03:51.658Z,9.70
2022-12-08T23:06:20.024Z,9.80
2022-12-08T23:08:50.357Z,9.65
2022-12-08T23:11:19.209Z,9.35
2022-12-08T23:13:47.592Z,9.93
2022-12-08T23:16:16.726Z,9.95
2022-12-08T23:18:46.945Z,10.13
2022-12-08T23:21:17.741Z,10.55
2022-12-08T23:23:46.662Z,10.75
2022-12-08T23:26:22.463Z,10.30
2022-12-08T23:28:51.125Z,10.68
2022-12-08T23:31:20.200Z,10.50
2022-12-08T23:33:48.704Z,10.73
2022-12-08T23:36:17.842Z,10.45
2022-12-08T23:38:46.664Z,11.27
2022-12-08T23:41:16.820Z,11.90
2022-12-08T23:43:48.035Z,11.18
2022-12-08T23:46:17.793Z,11.07
2022-12-08T23:48:46.448Z,11.25
2022-12-08T23:51:15.035Z,12.07
2022-12-08T23:53:46.408Z,11.43
2022-12-08T23:56:16.839Z,12.50
2022-12-08T23:58:47.340Z,11.57
